Fountainville, Pennsylvania
Current Conditions -  °F | °C
As of 10:54 AM on Wednesday 26 Nov 2014 (Local Time) from KDYL Reporting Station
Light Snow Light Snow  
Wind Chill: 26°   Ceiling: 300
Heat Index: 32°   Visibility: 1.2mi
Dew Point: 32°   Wind: 7mph
Humidity: 100%   Direction: 20°NNE
Pressure: 30.04"   Gusts: NA
Location:  40.34°N, 75.15°W
Report Text: KDYL 261554Z AUTO 02006KT 1 1/4SM -SN BR OVC003 00/00 A3004 RMK AO2 PRESFR SLP180 P0000 T00000000
Loading
Personal Weather Stations






























Interactive Weather Map New forecast layout! Learn more

10-Day Weather Forecast

Advertisements
Track Severe Weather on mobile